GJT7PM LSZH-EDLW
Flight info
| Callsign | GJT7PM |
|---|---|
| Flight time | 0h 51m |
| Altitude | 32000 |
| Route | DEGES1T DEGES Z1 ETAGO Z3 ABUMO N850 GISEM Z505 ARPEG Z850 ADEMI ADEMI2A |
| Aircraft | B738/M-SDE2E3FGHIRWXY/S |
Departure
| Time | 2026-04-30 09:03 |
|---|---|
| Airport | Zürich Airport (LSZH) |
Arrival
| Time | 2026-04-30 09:55 |
|---|---|
| Airport | Dortmund Airport (EDLW) |
| Time | Latitude | Longitude | Altitude | Speed | Heading |
|---|---|---|---|---|---|
| 2026-04-30 08:41 | 47.45436 | 8.55692 | 1406 ft | 0 kts | 186° |
| 2026-04-30 08:53 | 47.45437 | 8.55692 | 1406 ft | 1 kts | 186° |
| 2026-04-30 08:53 | 47.45461 | 8.55697 | 1413 ft | 4 kts | 191° |
| 2026-04-30 08:53 | 47.45487 | 8.55707 | 1406 ft | 4 kts | 205° |
| 2026-04-30 08:53 | 47.45507 | 8.55728 | 1409 ft | 4 kts | 247° |
| 2026-04-30 08:54 | 47.45510 | 8.55743 | 1411 ft | 1 kts | 275° |
| 2026-04-30 08:57 | 47.45510 | 8.55737 | 1408 ft | 2 kts | 275° |
| 2026-04-30 08:57 | 47.45513 | 8.55696 | 1409 ft | 6 kts | 275° |
| 2026-04-30 08:57 | 47.45519 | 8.55607 | 1412 ft | 11 kts | 276° |
| 2026-04-30 08:58 | 47.45528 | 8.55457 | 1409 ft | 18 kts | 275° |
| 2026-04-30 08:58 | 47.45548 | 8.55281 | 1400 ft | 14 kts | 300° |
| 2026-04-30 08:58 | 47.45624 | 8.55216 | 1402 ft | 13 kts | 336° |
| 2026-04-30 08:58 | 47.45704 | 8.55163 | 1396 ft | 12 kts | 334° |
| 2026-04-30 08:59 | 47.45781 | 8.55109 | 1400 ft | 12 kts | 335° |
| 2026-04-30 08:59 | 47.45856 | 8.55057 | 1398 ft | 12 kts | 334° |
| 2026-04-30 08:59 | 47.45929 | 8.55005 | 1398 ft | 11 kts | 334° |
| 2026-04-30 08:59 | 47.46001 | 8.54954 | 1386 ft | 12 kts | 334° |
| 2026-04-30 09:00 | 47.46078 | 8.54901 | 1387 ft | 12 kts | 335° |
| 2026-04-30 09:00 | 47.46155 | 8.54849 | 1387 ft | 12 kts | 335° |
| 2026-04-30 09:00 | 47.46243 | 8.54789 | 1384 ft | 16 kts | 335° |
| 2026-04-30 09:00 | 47.46366 | 8.54704 | 1384 ft | 22 kts | 334° |
| 2026-04-30 09:01 | 47.46505 | 8.54606 | 1383 ft | 22 kts | 335° |
| 2026-04-30 09:01 | 47.46641 | 8.54515 | 1383 ft | 21 kts | 336° |
| 2026-04-30 09:01 | 47.46774 | 8.54431 | 1380 ft | 21 kts | 338° |
| 2026-04-30 09:01 | 47.46903 | 8.54349 | 1383 ft | 20 kts | 332° |
| 2026-04-30 09:02 | 47.47006 | 8.54043 | 1382 ft | 19 kts | 231° |
| 2026-04-30 09:02 | 47.46880 | 8.54071 | 1379 ft | 30 kts | 156° |
| 2026-04-30 09:02 | 47.46425 | 8.54383 | 1381 ft | 116 kts | 155° |
| 2026-04-30 09:03 | 47.45461 | 8.55024 | 1507 ft | 177 kts | 153° |
| 2026-04-30 09:03 | 47.44270 | 8.55793 | 2345 ft | 196 kts | 156° |
| 2026-04-30 09:03 | 47.42980 | 8.56533 | 3370 ft | 197 kts | 147° |
| 2026-04-30 09:03 | 47.42111 | 8.57962 | 4294 ft | 188 kts | 105° |
| 2026-04-30 09:04 | 47.42207 | 8.59838 | 5053 ft | 192 kts | 63° |
| 2026-04-30 09:04 | 47.43193 | 8.61234 | 5676 ft | 201 kts | 42° |
| 2026-04-30 09:04 | 47.43906 | 8.62946 | 6051 ft | 204 kts | 78° |
| 2026-04-30 09:04 | 47.44150 | 8.64964 | 6420 ft | 191 kts | 79° |
| 2026-04-30 09:05 | 47.44403 | 8.66872 | 7084 ft | 192 kts | 79° |
| 2026-04-30 09:05 | 47.44683 | 8.68816 | 7738 ft | 196 kts | 79° |
| 2026-04-30 09:05 | 47.44971 | 8.70816 | 8378 ft | 201 kts | 78° |
| 2026-04-30 09:05 | 47.45285 | 8.72843 | 9015 ft | 202 kts | 77° |
| 2026-04-30 09:06 | 47.45601 | 8.74886 | 9681 ft | 204 kts | 76° |
| 2026-04-30 09:06 | 47.45919 | 8.76930 | 10257 ft | 214 kts | 77° |
| 2026-04-30 09:06 | 47.46270 | 8.79252 | 10561 ft | 248 kts | 77° |
| 2026-04-30 09:06 | 47.46599 | 8.81853 | 10890 ft | 268 kts | 85° |
| 2026-04-30 09:07 | 47.46449 | 8.84690 | 11333 ft | 287 kts | 99° |
| 2026-04-30 09:07 | 47.46020 | 8.87682 | 11748 ft | 307 kts | 101° |
| 2026-04-30 09:07 | 47.45523 | 8.90845 | 12189 ft | 324 kts | 101° |
| 2026-04-30 09:07 | 47.45025 | 8.94113 | 12611 ft | 325 kts | 101° |
| 2026-04-30 09:08 | 47.44543 | 8.97391 | 13011 ft | 330 kts | 100° |
| 2026-04-30 09:08 | 47.44224 | 8.99605 | 13283 ft | 332 kts | 100° |
| 2026-04-30 09:08 | 47.43743 | 9.02959 | 13709 ft | 335 kts | 100° |
| 2026-04-30 09:08 | 47.43254 | 9.06357 | 14142 ft | 345 kts | 100° |
| 2026-04-30 09:09 | 47.42650 | 9.12127 | 14716 ft | 361 kts | 85° |
| 2026-04-30 09:09 | 47.43279 | 9.15749 | 15109 ft | 359 kts | 63° |
| 2026-04-30 09:09 | 47.44725 | 9.18735 | 15499 ft | 358 kts | 43° |
| 2026-04-30 09:09 | 47.46771 | 9.20826 | 16013 ft | 357 kts | 26° |
| 2026-04-30 09:10 | 47.49153 | 9.21862 | 16655 ft | 359 kts | 11° |
| 2026-04-30 09:10 | 47.51644 | 9.22403 | 17320 ft | 364 kts | 9° |
| 2026-04-30 09:10 | 47.54142 | 9.22855 | 17966 ft | 369 kts | 8° |
| 2026-04-30 09:10 | 47.56698 | 9.23297 | 18628 ft | 372 kts | 8° |
| 2026-04-30 09:11 | 47.59283 | 9.23748 | 19222 ft | 374 kts | 9° |
| 2026-04-30 09:11 | 47.61866 | 9.24211 | 19819 ft | 375 kts | 9° |
| 2026-04-30 09:11 | 47.64461 | 9.24689 | 20424 ft | 376 kts | 9° |
| 2026-04-30 09:11 | 47.67064 | 9.25179 | 21047 ft | 376 kts | 10° |
| 2026-04-30 09:12 | 47.69663 | 9.25674 | 21684 ft | 377 kts | 10° |
| 2026-04-30 09:12 | 47.72265 | 9.26174 | 22338 ft | 377 kts | 10° |
| 2026-04-30 09:12 | 47.74876 | 9.26678 | 23008 ft | 378 kts | 11° |
| 2026-04-30 09:12 | 47.77486 | 9.27183 | 23682 ft | 377 kts | 11° |
| 2026-04-30 09:13 | 47.80055 | 9.27681 | 24281 ft | 377 kts | 11° |
| 2026-04-30 09:13 | 47.84507 | 9.28545 | 25283 ft | 375 kts | 11° |
| 2026-04-30 09:13 | 47.89686 | 9.29552 | 26498 ft | 372 kts | 11° |
| 2026-04-30 09:13 | 47.94796 | 9.30547 | 27751 ft | 368 kts | 11° |
| 2026-04-30 09:14 | 47.99833 | 9.31530 | 29076 ft | 362 kts | 12° |
| 2026-04-30 09:14 | 48.04774 | 9.32495 | 30419 ft | 354 kts | 12° |
| 2026-04-30 09:14 | 48.09315 | 9.33384 | 31540 ft | 345 kts | 12° |
| 2026-04-30 09:14 | 48.11683 | 9.33849 | 32102 ft | 341 kts | 12° |
| 2026-04-30 09:15 | 48.14060 | 9.34319 | 32277 ft | 349 kts | 12° |
| 2026-04-30 09:15 | 48.16497 | 9.34804 | 32300 ft | 358 kts | 12° |
| 2026-04-30 09:15 | 48.21522 | 9.35803 | 32320 ft | 376 kts | 12° |
| 2026-04-30 09:16 | 48.26833 | 9.36854 | 32317 ft | 393 kts | 11° |
| 2026-04-30 09:16 | 48.32324 | 9.37937 | 32304 ft | 399 kts | 11° |
| 2026-04-30 09:17 | 48.37847 | 9.39026 | 32308 ft | 400 kts | 11° |
| 2026-04-30 09:17 | 48.43347 | 9.40115 | 32304 ft | 397 kts | 11° |
| 2026-04-30 09:18 | 48.48810 | 9.41203 | 32321 ft | 394 kts | 11° |
| 2026-04-30 09:18 | 48.54201 | 9.42279 | 32334 ft | 392 kts | 11° |
| 2026-04-30 09:19 | 48.59607 | 9.43360 | 32337 ft | 391 kts | 11° |
| 2026-04-30 09:19 | 48.65001 | 9.44441 | 32340 ft | 390 kts | 11° |
| 2026-04-30 09:20 | 48.70371 | 9.45499 | 32346 ft | 392 kts | 9° |
| 2026-04-30 09:20 | 48.75901 | 9.44972 | 32336 ft | 403 kts | 352° |
| 2026-04-30 09:21 | 48.81338 | 9.42965 | 32348 ft | 405 kts | 351° |
| 2026-04-30 09:21 | 48.86816 | 9.40860 | 32336 ft | 406 kts | 351° |
| 2026-04-30 09:22 | 48.92316 | 9.38778 | 32342 ft | 407 kts | 351° |
| 2026-04-30 09:22 | 48.97821 | 9.36720 | 32344 ft | 408 kts | 351° |
| 2026-04-30 09:23 | 49.03337 | 9.34663 | 32351 ft | 408 kts | 351° |
| 2026-04-30 09:23 | 49.08829 | 9.32611 | 32361 ft | 408 kts | 351° |
| 2026-04-30 09:24 | 49.14342 | 9.30548 | 32364 ft | 408 kts | 351° |
| 2026-04-30 09:24 | 49.19854 | 9.28480 | 32357 ft | 407 kts | 351° |
| 2026-04-30 09:25 | 49.25359 | 9.26409 | 32365 ft | 406 kts | 351° |
| 2026-04-30 09:25 | 49.30847 | 9.24340 | 32369 ft | 406 kts | 351° |
| 2026-04-30 09:26 | 49.36336 | 9.22266 | 32379 ft | 406 kts | 351° |
| 2026-04-30 09:26 | 49.41782 | 9.20204 | 32384 ft | 406 kts | 351° |
| 2026-04-30 09:27 | 49.47261 | 9.18125 | 32380 ft | 405 kts | 351° |
| 2026-04-30 09:27 | 49.52733 | 9.16043 | 32397 ft | 406 kts | 351° |
| 2026-04-30 09:28 | 49.58222 | 9.13950 | 32388 ft | 406 kts | 351° |
| 2026-04-30 09:28 | 49.63704 | 9.11854 | 32402 ft | 405 kts | 351° |
| 2026-04-30 09:29 | 49.69185 | 9.09755 | 32406 ft | 405 kts | 351° |
| 2026-04-30 09:29 | 49.74635 | 9.07662 | 32405 ft | 405 kts | 351° |
| 2026-04-30 09:30 | 49.80118 | 9.05551 | 32411 ft | 406 kts | 351° |
| 2026-04-30 09:30 | 49.85535 | 9.03462 | 32414 ft | 406 kts | 351° |
| 2026-04-30 09:31 | 49.90985 | 9.01354 | 32422 ft | 405 kts | 351° |
| 2026-04-30 09:31 | 49.96457 | 8.99233 | 32416 ft | 405 kts | 351° |
| 2026-04-30 09:32 | 50.01932 | 8.97106 | 32424 ft | 405 kts | 351° |
| 2026-04-30 09:32 | 50.07408 | 8.94973 | 32423 ft | 405 kts | 351° |
| 2026-04-30 09:33 | 50.12881 | 8.92837 | 32430 ft | 405 kts | 351° |
| 2026-04-30 09:33 | 50.18352 | 8.91327 | 32437 ft | 400 kts | 357° |
| 2026-04-30 09:34 | 50.23883 | 8.90240 | 32435 ft | 400 kts | 358° |
| 2026-04-30 09:34 | 50.29415 | 8.89137 | 32430 ft | 401 kts | 357° |
| 2026-04-30 09:35 | 50.34955 | 8.87989 | 32439 ft | 401 kts | 357° |
| 2026-04-30 09:35 | 50.40466 | 8.86831 | 32442 ft | 401 kts | 357° |
| 2026-04-30 09:36 | 50.46005 | 8.85663 | 32075 ft | 404 kts | 357° |
| 2026-04-30 09:36 | 50.48790 | 8.85075 | 31537 ft | 402 kts | 357° |
| 2026-04-30 09:36 | 50.51573 | 8.84486 | 30955 ft | 402 kts | 357° |
| 2026-04-30 09:37 | 50.54350 | 8.83899 | 30319 ft | 403 kts | 357° |
| 2026-04-30 09:37 | 50.57133 | 8.83309 | 29613 ft | 403 kts | 356° |
| 2026-04-30 09:37 | 50.59873 | 8.82700 | 28932 ft | 404 kts | 353° |
| 2026-04-30 09:37 | 50.62594 | 8.81460 | 28259 ft | 410 kts | 343° |
| 2026-04-30 09:38 | 50.65179 | 8.79508 | 27601 ft | 415 kts | 334° |
| 2026-04-30 09:38 | 50.67535 | 8.76880 | 26954 ft | 414 kts | 325° |
| 2026-04-30 09:38 | 50.69718 | 8.73970 | 26320 ft | 406 kts | 324° |
| 2026-04-30 09:38 | 50.71824 | 8.71079 | 25698 ft | 398 kts | 323° |
| 2026-04-30 09:39 | 50.73894 | 8.68230 | 25099 ft | 391 kts | 324° |
| 2026-04-30 09:39 | 50.75938 | 8.65438 | 24510 ft | 385 kts | 324° |
| 2026-04-30 09:39 | 50.77954 | 8.62701 | 23906 ft | 380 kts | 324° |
| 2026-04-30 09:39 | 50.79927 | 8.60036 | 23227 ft | 375 kts | 324° |
| 2026-04-30 09:40 | 50.81902 | 8.57376 | 22562 ft | 370 kts | 324° |
| 2026-04-30 09:40 | 50.83852 | 8.54748 | 22001 ft | 365 kts | 324° |
| 2026-04-30 09:40 | 50.85778 | 8.52153 | 21470 ft | 365 kts | 324° |
| 2026-04-30 09:40 | 50.87728 | 8.49529 | 20953 ft | 371 kts | 324° |
| 2026-04-30 09:41 | 50.89701 | 8.46865 | 20673 ft | 368 kts | 324° |
| 2026-04-30 09:41 | 50.91621 | 8.44262 | 20616 ft | 357 kts | 324° |
| 2026-04-30 09:41 | 50.93481 | 8.41737 | 20538 ft | 346 kts | 324° |
| 2026-04-30 09:41 | 50.95287 | 8.39287 | 20404 ft | 337 kts | 324° |
| 2026-04-30 09:42 | 50.97065 | 8.36877 | 20117 ft | 334 kts | 324° |
| 2026-04-30 09:42 | 50.98831 | 8.34482 | 19740 ft | 335 kts | 324° |
| 2026-04-30 09:42 | 51.00580 | 8.32107 | 19388 ft | 334 kts | 324° |
| 2026-04-30 09:42 | 51.02396 | 8.29849 | 19064 ft | 329 kts | 332° |
| 2026-04-30 09:43 | 51.04367 | 8.28003 | 18606 ft | 330 kts | 336° |
| 2026-04-30 09:43 | 51.06390 | 8.26249 | 18135 ft | 331 kts | 336° |
| 2026-04-30 09:43 | 51.08431 | 8.24499 | 17664 ft | 333 kts | 336° |
| 2026-04-30 09:43 | 51.10476 | 8.22734 | 17159 ft | 335 kts | 336° |
| 2026-04-30 09:44 | 51.12532 | 8.20942 | 16605 ft | 339 kts | 335° |
| 2026-04-30 09:44 | 51.14608 | 8.19116 | 16068 ft | 342 kts | 335° |
| 2026-04-30 09:44 | 51.16704 | 8.17259 | 15530 ft | 346 kts | 335° |
| 2026-04-30 09:44 | 51.18783 | 8.15409 | 14991 ft | 347 kts | 335° |
| 2026-04-30 09:45 | 51.20868 | 8.13546 | 14509 ft | 340 kts | 335° |
| 2026-04-30 09:45 | 51.22912 | 8.11713 | 13989 ft | 333 kts | 335° |
| 2026-04-30 09:45 | 51.24911 | 8.09920 | 13444 ft | 327 kts | 335° |
| 2026-04-30 09:45 | 51.26883 | 8.08149 | 12928 ft | 322 kts | 335° |
| 2026-04-30 09:46 | 51.28824 | 8.06404 | 12407 ft | 318 kts | 335° |
| 2026-04-30 09:46 | 51.30658 | 8.04469 | 11871 ft | 320 kts | 318° |
| 2026-04-30 09:46 | 51.31907 | 8.01509 | 11412 ft | 321 kts | 297° |
| 2026-04-30 09:46 | 51.32736 | 7.98249 | 10937 ft | 319 kts | 292° |
| 2026-04-30 09:47 | 51.33499 | 7.94873 | 10441 ft | 317 kts | 291° |
| 2026-04-30 09:47 | 51.34224 | 7.91594 | 9950 ft | 315 kts | 291° |
| 2026-04-30 09:47 | 51.34953 | 7.88312 | 9477 ft | 311 kts | 291° |
| 2026-04-30 09:47 | 51.35679 | 7.85085 | 9050 ft | 302 kts | 291° |
| 2026-04-30 09:48 | 51.36386 | 7.81968 | 8575 ft | 293 kts | 291° |
| 2026-04-30 09:48 | 51.37074 | 7.78951 | 8120 ft | 284 kts | 291° |
| 2026-04-30 09:48 | 51.37746 | 7.76009 | 7671 ft | 279 kts | 291° |
| 2026-04-30 09:48 | 51.38402 | 7.73143 | 7238 ft | 276 kts | 291° |
| 2026-04-30 09:49 | 51.39059 | 7.70285 | 6846 ft | 270 kts | 291° |
| 2026-04-30 09:49 | 51.39700 | 7.67483 | 6433 ft | 265 kts | 291° |
| 2026-04-30 09:49 | 51.40328 | 7.64735 | 6004 ft | 261 kts | 291° |
| 2026-04-30 09:49 | 51.40947 | 7.62017 | 5623 ft | 258 kts | 291° |
| 2026-04-30 09:50 | 51.41558 | 7.59340 | 5286 ft | 251 kts | 291° |
| 2026-04-30 09:50 | 51.42142 | 7.56779 | 4929 ft | 245 kts | 291° |
| 2026-04-30 09:50 | 51.42723 | 7.54236 | 4570 ft | 241 kts | 290° |
| 2026-04-30 09:50 | 51.43293 | 7.51730 | 4170 ft | 237 kts | 290° |
| 2026-04-30 09:51 | 51.43864 | 7.49262 | 3696 ft | 234 kts | 289° |
| 2026-04-30 09:51 | 51.44534 | 7.46898 | 3227 ft | 234 kts | 309° |
| 2026-04-30 09:51 | 51.45798 | 7.45444 | 2826 ft | 216 kts | 348° |
| 2026-04-30 09:51 | 51.47188 | 7.45670 | 2387 ft | 191 kts | 38° |
| 2026-04-30 09:52 | 51.47863 | 7.47192 | 2229 ft | 162 kts | 84° |
| 2026-04-30 09:52 | 51.47710 | 7.48856 | 2046 ft | 143 kts | 97° |
| 2026-04-30 09:52 | 51.47994 | 7.50224 | 1930 ft | 129 kts | 52° |
| 2026-04-30 09:52 | 51.48489 | 7.51415 | 1730 ft | 127 kts | 75° |
| 2026-04-30 09:53 | 51.48819 | 7.52717 | 1758 ft | 132 kts | 62° |
| 2026-04-30 09:53 | 51.49288 | 7.53990 | 1517 ft | 130 kts | 66° |
| 2026-04-30 09:53 | 51.49713 | 7.55221 | 1267 ft | 127 kts | 64° |
| 2026-04-30 09:53 | 51.50162 | 7.56442 | 1065 ft | 130 kts | 64° |
| 2026-04-30 09:54 | 51.50614 | 7.57729 | 897 ft | 134 kts | 66° |
| 2026-04-30 09:54 | 51.51069 | 7.59025 | 724 ft | 132 kts | 70° |
| 2026-04-30 09:54 | 51.51503 | 7.60301 | 536 ft | 127 kts | 64° |
| 2026-04-30 09:54 | 51.51915 | 7.61476 | 459 ft | 108 kts | 60° |
| 2026-04-30 09:55 | 51.52166 | 7.62174 | 460 ft | 49 kts | 60° |
| 2026-04-30 09:55 | 51.52265 | 7.62456 | 458 ft | 31 kts | 61° |
| 2026-04-30 09:55 | 51.52326 | 7.62653 | 457 ft | 13 kts | 86° |
| 2026-04-30 09:55 | 51.52274 | 7.62752 | 452 ft | 6 kts | 153° |
| 2026-04-30 09:56 | 51.52207 | 7.62777 | 437 ft | 14 kts | 195° |
| 2026-04-30 09:56 | 51.52142 | 7.62653 | 442 ft | 15 kts | 242° |
| 2026-04-30 09:56 | 51.52092 | 7.62505 | 446 ft | 16 kts | 240° |
| 2026-04-30 09:56 | 51.52033 | 7.62324 | 449 ft | 21 kts | 243° |
| 2026-04-30 09:57 | 51.51957 | 7.62119 | 463 ft | 21 kts | 239° |
| 2026-04-30 09:57 | 51.51884 | 7.61919 | 465 ft | 20 kts | 240° |
| 2026-04-30 09:57 | 51.51817 | 7.61725 | 464 ft | 20 kts | 240° |
| 2026-04-30 09:57 | 51.51751 | 7.61535 | 463 ft | 19 kts | 240° |
| 2026-04-30 09:58 | 51.51707 | 7.61411 | 463 ft | 11 kts | 240° |
| 2026-04-30 09:58 | 51.51690 | 7.61365 | 463 ft | 2 kts | 229° |
| 2026-04-30 09:58 | 51.51668 | 7.61363 | 465 ft | 6 kts | 160° |
| 2026-04-30 09:58 | 51.51635 | 7.61396 | 465 ft | 4 kts | 149° |
| 2026-04-30 09:59 | 51.51633 | 7.61398 | 465 ft | 0 kts | 149° |